Locust, Iowa
Current Conditions -  °F | °C
As of 6:55 AM on Wednesday 26 Nov 2014 (Local Time) from KDEH Reporting Station
Overcast Overcast  
Wind Chill:   Ceiling: 7500
Heat Index: 19°   Visibility: 10mi
Dew Point: 16°   Wind: 8mph
Humidity: 86%   Direction: 100°E
Pressure: 30.04"   Gusts: NA
Location:  43.3626°N, 91.8164°W
Report Text: KDEH 261255Z AUTO 10007KT 10SM FEW043 FEW049 OVC075 M07/M09 A3004 RMK AO2
Loading
Personal Weather Stations






























Interactive Weather Map New forecast layout! Learn more

10-Day Weather Forecast

Advertisements
Track Severe Weather on mobile